sensor_id;sensor_type;location;lat;lon;timestamp;temperature;humidity
38860;DHT22;24609;48.316;16.174;2023-04-15T00:01:23;5.30;99.90
38860;DHT22;24609;48.316;16.174;2023-04-15T00:03:50;5.30;99.90
38860;DHT22;24609;48.316;16.174;2023-04-15T00:06:17;5.30;99.90
38860;DHT22;24609;48.316;16.174;2023-04-15T00:08:46;5.30;99.90
38860;DHT22;24609;48.316;16.174;2023-04-15T00:11:12;5.30;99.90
38860;DHT22;24609;48.316;16.174;2023-04-15T00:13:38;5.30;99.90
38860;DHT22;24609;48.316;16.174;2023-04-15T00:16:05;5.30;99.90
38860;DHT22;24609;48.316;16.174;2023-04-15T00:18:33;5.30;99.90
38860;DHT22;24609;48.316;16.174;2023-04-15T00:20:58;5.20;99.90
38860;DHT22;24609;48.316;16.174;2023-04-15T00:23:24;5.20;99.90
38860;DHT22;24609;48.316;16.174;2023-04-15T00:25:50;5.20;99.90
38860;DHT22;24609;48.316;16.174;2023-04-15T00:28:16;5.10;99.90
38860;DHT22;24609;48.316;16.174;2023-04-15T00:30:42;5.10;99.90
38860;DHT22;24609;48.316;16.174;2023-04-15T00:33:08;5.10;99.90
38860;DHT22;24609;48.316;16.174;2023-04-15T00:35:34;5.00;99.90
38860;DHT22;24609;48.316;16.174;2023-04-15T00:38:02;5.00;99.90
38860;DHT22;24609;48.316;16.174;2023-04-15T00:40:29;5.00;99.90
38860;DHT22;24609;48.316;16.174;2023-04-15T00:42:54;5.00;99.90
38860;DHT22;24609;48.316;16.174;2023-04-15T00:45:20;5.00;99.90
38860;DHT22;24609;48.316;16.174;2023-04-15T00:47:46;5.00;99.90
38860;DHT22;24609;48.316;16.174;2023-04-15T00:50:11;5.00;99.90
38860;DHT22;24609;48.316;16.174;2023-04-15T00:52:38;5.00;99.90
38860;DHT22;24609;48.316;16.174;2023-04-15T00:55:05;5.00;99.90
38860;DHT22;24609;48.316;16.174;2023-04-15T00:57:31;5.00;99.90
38860;DHT22;24609;48.316;16.174;2023-04-15T00:59:57;5.10;99.90
38860;DHT22;24609;48.316;16.174;2023-04-15T01:02:23;5.00;99.90
38860;DHT22;24609;48.316;16.174;2023-04-15T01:04:49;5.10;99.90
38860;DHT22;24609;48.316;16.174;2023-04-15T01:07:15;5.00;99.90
38860;DHT22;24609;48.316;16.174;2023-04-15T01:09:41;5.10;99.90
38860;DHT22;24609;48.316;16.174;2023-04-15T01:12:09;5.10;99.90
38860;DHT22;24609;48.316;16.174;2023-04-15T01:14:36;5.10;99.90
38860;DHT22;24609;48.316;16.174;2023-04-15T01:17:02;5.10;99.90
38860;DHT22;24609;48.316;16.174;2023-04-15T01:19:27;5.10;99.90
38860;DHT22;24609;48.316;16.174;2023-04-15T01:21:54;5.10;99.90
38860;DHT22;24609;48.316;16.174;2023-04-15T01:24:19;5.10;99.90
38860;DHT22;24609;48.316;16.174;2023-04-15T01:26:46;5.10;99.90
38860;DHT22;24609;48.316;16.174;2023-04-15T01:29:14;5.10;99.90
38860;DHT22;24609;48.316;16.174;2023-04-15T01:31:39;5.10;99.90
38860;DHT22;24609;48.316;16.174;2023-04-15T01:34:05;5.20;99.90
38860;DHT22;24609;48.316;16.174;2023-04-15T01:36:31;5.20;99.90
38860;DHT22;24609;48.316;16.174;2023-04-15T01:38:57;5.20;99.90
38860;DHT22;24609;48.316;16.174;2023-04-15T01:41:27;5.20;99.90
38860;DHT22;24609;48.316;16.174;2023-04-15T01:43:52;5.20;99.90
38860;DHT22;24609;48.316;16.174;2023-04-15T01:46:18;5.20;99.90
38860;DHT22;24609;48.316;16.174;2023-04-15T01:48:44;5.20;99.90
38860;DHT22;24609;48.316;16.174;2023-04-15T01:51:10;5.20;99.90
38860;DHT22;24609;48.316;16.174;2023-04-15T01:53:36;5.20;99.90
38860;DHT22;24609;48.316;16.174;2023-04-15T01:56:02;5.20;99.90
38860;DHT22;24609;48.316;16.174;2023-04-15T01:58:28;5.20;99.90
38860;DHT22;24609;48.316;16.174;2023-04-15T02:00:55;5.20;99.90
38860;DHT22;24609;48.316;16.174;2023-04-15T02:03:21;5.20;99.90
38860;DHT22;24609;48.316;16.174;2023-04-15T02:05:46;5.20;99.90
38860;DHT22;24609;48.316;16.174;2023-04-15T02:08:12;5.20;99.90
38860;DHT22;24609;48.316;16.174;2023-04-15T02:10:38;5.20;99.90
38860;DHT22;24609;48.316;16.174;2023-04-15T02:13:04;5.20;99.90
38860;DHT22;24609;48.316;16.174;2023-04-15T02:15:29;5.20;99.90
38860;DHT22;24609;48.316;16.174;2023-04-15T02:17:55;5.20;99.90
38860;DHT22;24609;48.316;16.174;2023-04-15T02:20:22;5.20;99.90
38860;DHT22;24609;48.316;16.174;2023-04-15T02:22:48;5.20;99.90
38860;DHT22;24609;48.316;16.174;2023-04-15T02:25:14;5.20;99.90
38860;DHT22;24609;48.316;16.174;2023-04-15T02:27:41;5.20;99.90
38860;DHT22;24609;48.316;16.174;2023-04-15T02:30:07;5.20;99.90
38860;DHT22;24609;48.316;16.174;2023-04-15T02:32:33;5.10;99.90
38860;DHT22;24609;48.316;16.174;2023-04-15T02:35:06;5.10;99.90
38860;DHT22;24609;48.316;16.174;2023-04-15T02:37:35;5.10;99.90
38860;DHT22;24609;48.316;16.174;2023-04-15T02:40:07;5.00;99.90
38860;DHT22;24609;48.316;16.174;2023-04-15T02:42:33;5.00;99.90
38860;DHT22;24609;48.316;16.174;2023-04-15T02:44:59;5.00;99.90
38860;DHT22;24609;48.316;16.174;2023-04-15T02:47:25;5.00;99.90
38860;DHT22;24609;48.316;16.174;2023-04-15T02:49:51;4.90;99.90
38860;DHT22;24609;48.316;16.174;2023-04-15T02:52:16;4.90;99.90
38860;DHT22;24609;48.316;16.174;2023-04-15T02:54:42;4.80;99.90
38860;DHT22;24609;48.316;16.174;2023-04-15T02:57:08;4.80;99.90
38860;DHT22;24609;48.316;16.174;2023-04-15T02:59:35;4.80;99.90
38860;DHT22;24609;48.316;16.174;2023-04-15T03:02:00;4.70;99.90
38860;DHT22;24609;48.316;16.174;2023-04-15T03:04:26;4.70;99.90
38860;DHT22;24609;48.316;16.174;2023-04-15T03:06:54;4.70;99.90
38860;DHT22;24609;48.316;16.174;2023-04-15T03:09:21;4.70;99.90
38860;DHT22;24609;48.316;16.174;2023-04-15T03:11:46;4.60;99.90
38860;DHT22;24609;48.316;16.174;2023-04-15T03:14:12;4.60;99.90
38860;DHT22;24609;48.316;16.174;2023-04-15T03:16:38;4.60;99.90
38860;DHT22;24609;48.316;16.174;2023-04-15T03:19:04;4.50;99.90
38860;DHT22;24609;48.316;16.174;2023-04-15T03:21:30;4.60;99.90
38860;DHT22;24609;48.316;16.174;2023-04-15T03:23:56;4.60;99.90
38860;DHT22;24609;48.316;16.174;2023-04-15T03:26:28;4.50;99.90
38860;DHT22;24609;48.316;16.174;2023-04-15T03:28:55;4.50;99.90
38860;DHT22;24609;48.316;16.174;2023-04-15T03:31:20;4.50;99.90
38860;DHT22;24609;48.316;16.174;2023-04-15T03:33:46;4.50;99.90
38860;DHT22;24609;48.316;16.174;2023-04-15T03:36:12;4.50;99.90
38860;DHT22;24609;48.316;16.174;2023-04-15T03:38:37;4.50;99.90
38860;DHT22;24609;48.316;16.174;2023-04-15T03:41:03;4.50;99.90
38860;DHT22;24609;48.316;16.174;2023-04-15T03:43:29;4.50;99.90
38860;DHT22;24609;48.316;16.174;2023-04-15T03:45:55;4.50;99.90
38860;DHT22;24609;48.316;16.174;2023-04-15T03:48:21;4.50;99.90
38860;DHT22;24609;48.316;16.174;2023-04-15T03:50:47;4.50;99.90
38860;DHT22;24609;48.316;16.174;2023-04-15T03:53:13;4.50;99.90
38860;DHT22;24609;48.316;16.174;2023-04-15T03:55:39;4.50;99.90
38860;DHT22;24609;48.316;16.174;2023-04-15T03:58:04;4.40;99.90
38860;DHT22;24609;48.316;16.174;2023-04-15T04:00:30;4.40;99.90
38860;DHT22;24609;48.316;16.174;2023-04-15T04:02:56;4.40;99.90
38860;DHT22;24609;48.316;16.174;2023-04-15T04:05:22;4.40;99.90
38860;DHT22;24609;48.316;16.174;2023-04-15T04:07:47;4.40;99.90
38860;DHT22;24609;48.316;16.174;2023-04-15T04:10:13;4.40;99.90
38860;DHT22;24609;48.316;16.174;2023-04-15T04:12:38;4.40;99.90
38860;DHT22;24609;48.316;16.174;2023-04-15T04:15:04;4.40;99.90
38860;DHT22;24609;48.316;16.174;2023-04-15T04:17:31;4.30;99.90
38860;DHT22;24609;48.316;16.174;2023-04-15T04:19:57;4.30;99.90
38860;DHT22;24609;48.316;16.174;2023-04-15T04:22:22;4.30;99.90
38860;DHT22;24609;48.316;16.174;2023-04-15T04:24:54;4.20;99.90
38860;DHT22;24609;48.316;16.174;2023-04-15T04:27:21;4.20;99.90
38860;DHT22;24609;48.316;16.174;2023-04-15T04:29:46;4.10;99.90
38860;DHT22;24609;48.316;16.174;2023-04-15T04:32:14;4.10;99.90
38860;DHT22;24609;48.316;16.174;2023-04-15T04:34:39;4.00;99.90
38860;DHT22;24609;48.316;16.174;2023-04-15T04:37:05;4.00;99.90
38860;DHT22;24609;48.316;16.174;2023-04-15T04:39:31;4.00;99.90
38860;DHT22;24609;48.316;16.174;2023-04-15T04:41:57;3.90;99.90
38860;DHT22;24609;48.316;16.174;2023-04-15T04:44:22;3.90;99.90
38860;DHT22;24609;48.316;16.174;2023-04-15T04:46:48;3.90;99.90
38860;DHT22;24609;48.316;16.174;2023-04-15T04:49:14;3.90;99.90
38860;DHT22;24609;48.316;16.174;2023-04-15T04:51:39;3.90;99.90
38860;DHT22;24609;48.316;16.174;2023-04-15T04:54:05;3.80;99.90
38860;DHT22;24609;48.316;16.174;2023-04-15T04:56:31;3.80;99.90
38860;DHT22;24609;48.316;16.174;2023-04-15T04:58:58;3.80;99.90
38860;DHT22;24609;48.316;16.174;2023-04-15T05:01:24;3.80;99.90
38860;DHT22;24609;48.316;16.174;2023-04-15T05:03:51;3.80;99.90
38860;DHT22;24609;48.316;16.174;2023-04-15T05:06:17;3.80;99.90
38860;DHT22;24609;48.316;16.174;2023-04-15T05:08:43;3.80;99.90
38860;DHT22;24609;48.316;16.174;2023-04-15T05:11:09;3.80;99.90
38860;DHT22;24609;48.316;16.174;2023-04-15T05:13:34;3.80;99.90
38860;DHT22;24609;48.316;16.174;2023-04-15T05:16:04;3.80;99.90
38860;DHT22;24609;48.316;16.174;2023-04-15T05:18:30;3.80;99.90
38860;DHT22;24609;48.316;16.174;2023-04-15T05:20:55;3.90;99.90
38860;DHT22;24609;48.316;16.174;2023-04-15T05:23:21;3.90;99.90
38860;DHT22;24609;48.316;16.174;2023-04-15T05:25:47;3.90;99.90
38860;DHT22;24609;48.316;16.174;2023-04-15T05:28:13;3.90;99.90
38860;DHT22;24609;48.316;16.174;2023-04-15T05:30:39;3.90;99.90
38860;DHT22;24609;48.316;16.174;2023-04-15T05:33:04;3.90;99.90
38860;DHT22;24609;48.316;16.174;2023-04-15T05:35:30;3.90;99.90
38860;DHT22;24609;48.316;16.174;2023-04-15T05:37:56;3.90;99.90
38860;DHT22;24609;48.316;16.174;2023-04-15T05:40:22;3.90;99.90
38860;DHT22;24609;48.316;16.174;2023-04-15T05:42:47;4.00;99.90
38860;DHT22;24609;48.316;16.174;2023-04-15T05:45:13;4.00;99.90
38860;DHT22;24609;48.316;16.174;2023-04-15T05:47:39;4.00;99.90
38860;DHT22;24609;48.316;16.174;2023-04-15T05:50:05;4.00;99.90
38860;DHT22;24609;48.316;16.174;2023-04-15T05:52:31;4.10;99.90
38860;DHT22;24609;48.316;16.174;2023-04-15T05:54:57;4.10;99.90
38860;DHT22;24609;48.316;16.174;2023-04-15T05:57:23;4.20;99.90
38860;DHT22;24609;48.316;16.174;2023-04-15T05:59:49;4.30;99.90
38860;DHT22;24609;48.316;16.174;2023-04-15T06:02:17;4.30;99.90
38860;DHT22;24609;48.316;16.174;2023-04-15T06:04:42;4.30;99.90
38860;DHT22;24609;48.316;16.174;2023-04-15T06:07:08;4.30;99.90
38860;DHT22;24609;48.316;16.174;2023-04-15T06:09:34;4.30;99.90
38860;DHT22;24609;48.316;16.174;2023-04-15T06:12:00;4.30;99.90
38860;DHT22;24609;48.316;16.174;2023-04-15T06:14:26;4.40;99.90
38860;DHT22;24609;48.316;16.174;2023-04-15T06:16:52;4.40;99.90
38860;DHT22;24609;48.316;16.174;2023-04-15T06:19:18;4.50;99.90
38860;DHT22;24609;48.316;16.174;2023-04-15T06:21:44;4.50;99.90
38860;DHT22;24609;48.316;16.174;2023-04-15T06:24:11;4.50;99.90
38860;DHT22;24609;48.316;16.174;2023-04-15T06:26:36;4.50;99.90
38860;DHT22;24609;48.316;16.174;2023-04-15T06:29:02;4.50;99.90
38860;DHT22;24609;48.316;16.174;2023-04-15T06:31:29;4.50;99.90
38860;DHT22;24609;48.316;16.174;2023-04-15T06:33:55;4.50;99.90
38860;DHT22;24609;48.316;16.174;2023-04-15T06:36:20;4.60;99.90
38860;DHT22;24609;48.316;16.174;2023-04-15T06:38:46;4.60;99.90
38860;DHT22;24609;48.316;16.174;2023-04-15T06:41:12;4.70;99.90
38860;DHT22;24609;48.316;16.174;2023-04-15T06:43:41;4.70;99.90
38860;DHT22;24609;48.316;16.174;2023-04-15T06:46:07;4.70;99.90
38860;DHT22;24609;48.316;16.174;2023-04-15T06:48:33;4.80;99.90
38860;DHT22;24609;48.316;16.174;2023-04-15T06:50:59;4.80;99.90
38860;DHT22;24609;48.316;16.174;2023-04-15T06:53:29;4.80;99.90
38860;DHT22;24609;48.316;16.174;2023-04-15T06:55:55;4.90;99.90
38860;DHT22;24609;48.316;16.174;2023-04-15T06:58:21;4.90;99.90
38860;DHT22;24609;48.316;16.174;2023-04-15T07:00:47;5.00;99.90
38860;DHT22;24609;48.316;16.174;2023-04-15T07:03:13;5.00;99.90
38860;DHT22;24609;48.316;16.174;2023-04-15T07:05:39;5.00;99.90
38860;DHT22;24609;48.316;16.174;2023-04-15T07:08:06;5.00;99.90
38860;DHT22;24609;48.316;16.174;2023-04-15T07:10:33;5.00;99.90
38860;DHT22;24609;48.316;16.174;2023-04-15T07:12:58;5.20;99.90
38860;DHT22;24609;48.316;16.174;2023-04-15T07:15:24;5.20;99.90
38860;DHT22;24609;48.316;16.174;2023-04-15T07:17:50;5.20;99.90
38860;DHT22;24609;48.316;16.174;2023-04-15T07:20:16;5.30;99.90
38860;DHT22;24609;48.316;16.174;2023-04-15T07:22:41;5.50;99.90
38860;DHT22;24609;48.316;16.174;2023-04-15T07:25:08;5.60;99.90
38860;DHT22;24609;48.316;16.174;2023-04-15T07:27:33;5.80;99.90
38860;DHT22;24609;48.316;16.174;2023-04-15T07:29:59;5.90;99.90
38860;DHT22;24609;48.316;16.174;2023-04-15T07:32:25;5.90;99.90
38860;DHT22;24609;48.316;16.174;2023-04-15T07:34:51;5.80;99.90
38860;DHT22;24609;48.316;16.174;2023-04-15T07:37:17;5.80;99.90
38860;DHT22;24609;48.316;16.174;2023-04-15T07:39:44;5.70;99.90
38860;DHT22;24609;48.316;16.174;2023-04-15T07:42:10;5.80;99.90
38860;DHT22;24609;48.316;16.174;2023-04-15T07:44:36;5.80;99.90
38860;DHT22;24609;48.316;16.174;2023-04-15T07:47:02;5.90;99.90
38860;DHT22;24609;48.316;16.174;2023-04-15T07:49:28;6.00;99.90
38860;DHT22;24609;48.316;16.174;2023-04-15T07:51:54;6.00;99.90
38860;DHT22;24609;48.316;16.174;2023-04-15T07:54:22;6.10;99.90
38860;DHT22;24609;48.316;16.174;2023-04-15T07:56:47;6.20;99.90
38860;DHT22;24609;48.316;16.174;2023-04-15T07:59:14;6.20;99.90
38860;DHT22;24609;48.316;16.174;2023-04-15T08:01:42;6.30;99.90
38860;DHT22;24609;48.316;16.174;2023-04-15T08:04:08;6.50;99.90
38860;DHT22;24609;48.316;16.174;2023-04-15T08:06:34;6.70;99.90
38860;DHT22;24609;48.316;16.174;2023-04-15T08:09:01;6.70;99.90
38860;DHT22;24609;48.316;16.174;2023-04-15T08:11:27;6.60;99.90
38860;DHT22;24609;48.316;16.174;2023-04-15T08:13:52;6.80;99.90
38860;DHT22;24609;48.316;16.174;2023-04-15T08:16:20;6.60;99.90
38860;DHT22;24609;48.316;16.174;2023-04-15T08:18:47;6.50;99.90
38860;DHT22;24609;48.316;16.174;2023-04-15T08:21:13;6.70;99.90
38860;DHT22;24609;48.316;16.174;2023-04-15T08:23:39;6.70;99.90
38860;DHT22;24609;48.316;16.174;2023-04-15T08:26:05;6.80;99.90
38860;DHT22;24609;48.316;16.174;2023-04-15T08:28:31;7.10;99.90
38860;DHT22;24609;48.316;16.174;2023-04-15T08:30:56;7.40;99.90
38860;DHT22;24609;48.316;16.174;2023-04-15T08:33:22;7.60;99.90
38860;DHT22;24609;48.316;16.174;2023-04-15T08:35:48;7.70;99.90
38860;DHT22;24609;48.316;16.174;2023-04-15T08:38:14;7.50;99.90
38860;DHT22;24609;48.316;16.174;2023-04-15T08:40:44;8.10;99.90
38860;DHT22;24609;48.316;16.174;2023-04-15T08:43:14;8.10;99.90
38860;DHT22;24609;48.316;16.174;2023-04-15T08:45:40;8.20;99.90
38860;DHT22;24609;48.316;16.174;2023-04-15T08:48:09;8.00;99.90
38860;DHT22;24609;48.316;16.174;2023-04-15T08:50:37;7.90;99.90
38860;DHT22;24609;48.316;16.174;2023-04-15T08:53:10;7.60;99.90
38860;DHT22;24609;48.316;16.174;2023-04-15T08:55:42;7.50;99.90
38860;DHT22;24609;48.316;16.174;2023-04-15T08:58:09;7.40;99.90
38860;DHT22;24609;48.316;16.174;2023-04-15T09:00:36;7.30;99.90
38860;DHT22;24609;48.316;16.174;2023-04-15T09:03:04;7.30;99.90
38860;DHT22;24609;48.316;16.174;2023-04-15T09:05:34;7.50;99.90
38860;DHT22;24609;48.316;16.174;2023-04-15T09:08:01;7.80;99.90
38860;DHT22;24609;48.316;16.174;2023-04-15T09:10:31;7.80;99.90
38860;DHT22;24609;48.316;16.174;2023-04-15T09:13:03;7.70;99.90
38860;DHT22;24609;48.316;16.174;2023-04-15T09:15:53;7.70;99.90
38860;DHT22;24609;48.316;16.174;2023-04-15T09:18:33;7.80;99.90
38860;DHT22;24609;48.316;16.174;2023-04-15T09:21:12;7.60;99.90
38860;DHT22;24609;48.316;16.174;2023-04-15T09:24:00;7.40;99.90
38860;DHT22;24609;48.316;16.174;2023-04-15T09:26:34;7.20;99.90
38860;DHT22;24609;48.316;16.174;2023-04-15T09:29:09;7.40;99.90
38860;DHT22;24609;48.316;16.174;2023-04-15T09:31:40;7.50;99.90
38860;DHT22;24609;48.316;16.174;2023-04-15T09:34:07;7.50;99.90
38860;DHT22;24609;48.316;16.174;2023-04-15T09:39:11;7.40;99.90
38860;DHT22;24609;48.316;16.174;2023-04-15T09:41:37;7.20;99.90
38860;DHT22;24609;48.316;16.174;2023-04-15T09:44:03;6.90;99.90
38860;DHT22;24609;48.316;16.174;2023-04-15T09:46:59;6.90;99.90
38860;DHT22;24609;48.316;16.174;2023-04-15T09:49:30;6.90;99.90
38860;DHT22;24609;48.316;16.174;2023-04-15T09:52:06;6.80;99.90
38860;DHT22;24609;48.316;16.174;2023-04-15T09:54:53;6.70;99.90
38860;DHT22;24609;48.316;16.174;2023-04-15T09:57:38;6.80;99.90
38860;DHT22;24609;48.316;16.174;2023-04-15T10:00:22;6.70;99.90
38860;DHT22;24609;48.316;16.174;2023-04-15T10:03:35;7.00;99.90
38860;DHT22;24609;48.316;16.174;2023-04-15T10:06:12;7.50;99.90
38860;DHT22;24609;48.316;16.174;2023-04-15T10:08:43;7.50;99.90
38860;DHT22;24609;48.316;16.174;2023-04-15T10:11:13;7.20;99.90
38860;DHT22;24609;48.316;16.174;2023-04-15T10:13:41;7.30;99.90
38860;DHT22;24609;48.316;16.174;2023-04-15T10:19:22;7.40;99.90
38860;DHT22;24609;48.316;16.174;2023-04-15T10:21:50;7.60;99.90
38860;DHT22;24609;48.316;16.174;2023-04-15T10:24:19;7.80;99.90
38860;DHT22;24609;48.316;16.174;2023-04-15T10:26:45;7.90;99.90
38860;DHT22;24609;48.316;16.174;2023-04-15T10:29:14;7.60;99.90
38860;DHT22;24609;48.316;16.174;2023-04-15T10:31:41;7.50;99.90
38860;DHT22;24609;48.316;16.174;2023-04-15T10:34:07;7.20;99.90
38860;DHT22;24609;48.316;16.174;2023-04-15T10:36:33;7.10;99.90
38860;DHT22;24609;48.316;16.174;2023-04-15T10:39:01;7.20;99.90
38860;DHT22;24609;48.316;16.174;2023-04-15T10:41:30;7.50;99.90
38860;DHT22;24609;48.316;16.174;2023-04-15T10:44:00;7.50;99.90
38860;DHT22;24609;48.316;16.174;2023-04-15T10:46:41;7.40;99.90
38860;DHT22;24609;48.316;16.174;2023-04-15T10:49:13;7.60;99.90
38860;DHT22;24609;48.316;16.174;2023-04-15T10:51:44;7.70;99.90
38860;DHT22;24609;48.316;16.174;2023-04-15T10:54:30;7.70;99.90
38860;DHT22;24609;48.316;16.174;2023-04-15T10:59:35;7.60;99.90
38860;DHT22;24609;48.316;16.174;2023-04-15T11:02:12;7.30;99.90
38860;DHT22;24609;48.316;16.174;2023-04-15T11:04:59;7.30;99.90
38860;DHT22;24609;48.316;16.174;2023-04-15T11:07:54;7.30;99.90
38860;DHT22;24609;48.316;16.174;2023-04-15T11:12:49;7.50;99.90
38860;DHT22;24609;48.316;16.174;2023-04-15T11:15:35;7.70;99.90
38860;DHT22;24609;48.316;16.174;2023-04-15T11:18:24;7.90;99.90
38860;DHT22;24609;48.316;16.174;2023-04-15T11:20:52;7.70;99.90
38860;DHT22;24609;48.316;16.174;2023-04-15T11:23:33;7.80;99.90
38860;DHT22;24609;48.316;16.174;2023-04-15T11:26:01;7.60;99.90
38860;DHT22;24609;48.316;16.174;2023-04-15T11:28:29;7.70;99.90
38860;DHT22;24609;48.316;16.174;2023-04-15T11:30:55;8.10;99.90
38860;DHT22;24609;48.316;16.174;2023-04-15T11:33:25;8.10;99.90
38860;DHT22;24609;48.316;16.174;2023-04-15T11:35:52;7.90;99.90
38860;DHT22;24609;48.316;16.174;2023-04-15T11:38:19;7.70;99.90
38860;DHT22;24609;48.316;16.174;2023-04-15T11:40:45;8.20;99.90
38860;DHT22;24609;48.316;16.174;2023-04-15T11:48:14;8.90;99.90
38860;DHT22;24609;48.316;16.174;2023-04-15T11:50:42;8.80;99.90
38860;DHT22;24609;48.316;16.174;2023-04-15T11:53:14;9.10;99.90
38860;DHT22;24609;48.316;16.174;2023-04-15T12:10:04;10.70;99.90
38860;DHT22;24609;48.316;16.174;2023-04-15T12:19:34;10.20;99.90
38860;DHT22;24609;48.316;16.174;2023-04-15T12:22:11;9.90;99.90
38860;DHT22;24609;48.316;16.174;2023-04-15T12:24:42;9.40;99.90
38860;DHT22;24609;48.316;16.174;2023-04-15T12:27:15;9.50;99.90
38860;DHT22;24609;48.316;16.174;2023-04-15T12:29:47;9.50;99.90
38860;DHT22;24609;48.316;16.174;2023-04-15T12:32:18;9.50;99.90
38860;DHT22;24609;48.316;16.174;2023-04-15T12:34:52;9.50;99.90
38860;DHT22;24609;48.316;16.174;2023-04-15T12:37:22;9.40;99.90
38860;DHT22;24609;48.316;16.174;2023-04-15T12:39:48;9.00;99.90
38860;DHT22;24609;48.316;16.174;2023-04-15T12:42:15;8.50;99.90
38860;DHT22;24609;48.316;16.174;2023-04-15T12:44:41;8.50;99.90
38860;DHT22;24609;48.316;16.174;2023-04-15T12:47:08;8.80;99.90
38860;DHT22;24609;48.316;16.174;2023-04-15T12:49:34;9.00;99.90
38860;DHT22;24609;48.316;16.174;2023-04-15T12:52:01;9.30;99.90
38860;DHT22;24609;48.316;16.174;2023-04-15T12:54:29;9.70;99.90
38860;DHT22;24609;48.316;16.174;2023-04-15T12:56:55;9.60;99.90
38860;DHT22;24609;48.316;16.174;2023-04-15T12:59:22;9.70;99.90
38860;DHT22;24609;48.316;16.174;2023-04-15T13:01:48;9.10;99.90
38860;DHT22;24609;48.316;16.174;2023-04-15T13:04:15;9.40;99.90
38860;DHT22;24609;48.316;16.174;2023-04-15T13:06:43;9.80;99.90
38860;DHT22;24609;48.316;16.174;2023-04-15T13:09:09;9.40;99.90
38860;DHT22;24609;48.316;16.174;2023-04-15T13:11:35;9.60;99.90
38860;DHT22;24609;48.316;16.174;2023-04-15T13:14:05;9.40;99.90
38860;DHT22;24609;48.316;16.174;2023-04-15T13:16:32;9.60;99.90
38860;DHT22;24609;48.316;16.174;2023-04-15T13:18:59;10.20;99.90
38860;DHT22;24609;48.316;16.174;2023-04-15T13:21:25;10.00;99.90
38860;DHT22;24609;48.316;16.174;2023-04-15T13:23:53;10.30;99.90
38860;DHT22;24609;48.316;16.174;2023-04-15T13:26:18;10.40;99.90
38860;DHT22;24609;48.316;16.174;2023-04-15T13:28:45;10.50;99.90
38860;DHT22;24609;48.316;16.174;2023-04-15T13:31:11;10.00;99.90
38860;DHT22;24609;48.316;16.174;2023-04-15T13:33:41;10.10;99.90
38860;DHT22;24609;48.316;16.174;2023-04-15T13:36:07;10.50;99.90
38860;DHT22;24609;48.316;16.174;2023-04-15T13:38:33;10.70;99.90
38860;DHT22;24609;48.316;16.174;2023-04-15T13:40:59;11.00;99.90
38860;DHT22;24609;48.316;16.174;2023-04-15T13:43:25;10.70;99.90
38860;DHT22;24609;48.316;16.174;2023-04-15T13:45:51;10.30;99.90
38860;DHT22;24609;48.316;16.174;2023-04-15T13:48:17;9.80;99.90
38860;DHT22;24609;48.316;16.174;2023-04-15T13:50:43;9.00;99.90
38860;DHT22;24609;48.316;16.174;2023-04-15T13:53:12;8.90;99.90
38860;DHT22;24609;48.316;16.174;2023-04-15T13:55:38;8.70;99.90
38860;DHT22;24609;48.316;16.174;2023-04-15T13:58:06;8.80;99.90
38860;DHT22;24609;48.316;16.174;2023-04-15T14:00:32;8.90;99.90
38860;DHT22;24609;48.316;16.174;2023-04-15T14:02:58;9.10;99.90
38860;DHT22;24609;48.316;16.174;2023-04-15T14:05:23;9.60;99.90
38860;DHT22;24609;48.316;16.174;2023-04-15T14:07:49;10.00;99.90
38860;DHT22;24609;48.316;16.174;2023-04-15T14:10:15;10.30;99.90
38860;DHT22;24609;48.316;16.174;2023-04-15T14:12:41;10.60;99.90
38860;DHT22;24609;48.316;16.174;2023-04-15T14:15:07;10.00;99.90
38860;DHT22;24609;48.316;16.174;2023-04-15T14:17:33;9.90;99.90
38860;DHT22;24609;48.316;16.174;2023-04-15T14:19:58;10.40;99.90
38860;DHT22;24609;48.316;16.174;2023-04-15T14:22:24;10.30;99.90
38860;DHT22;24609;48.316;16.174;2023-04-15T14:24:50;10.00;99.90
38860;DHT22;24609;48.316;16.174;2023-04-15T14:27:18;10.40;99.90
38860;DHT22;24609;48.316;16.174;2023-04-15T14:29:44;10.80;99.90
38860;DHT22;24609;48.316;16.174;2023-04-15T14:32:09;10.60;99.90
38860;DHT22;24609;48.316;16.174;2023-04-15T14:34:35;10.60;99.90
38860;DHT22;24609;48.316;16.174;2023-04-15T14:37:02;10.40;99.90
38860;DHT22;24609;48.316;16.174;2023-04-15T14:39:27;9.90;99.90
38860;DHT22;24609;48.316;16.174;2023-04-15T14:41:53;9.70;99.90
38860;DHT22;24609;48.316;16.174;2023-04-15T14:44:20;10.00;99.90
38860;DHT22;24609;48.316;16.174;2023-04-15T14:46:45;9.70;99.90
38860;DHT22;24609;48.316;16.174;2023-04-15T14:49:11;10.00;99.90
38860;DHT22;24609;48.316;16.174;2023-04-15T14:51:37;9.60;99.90
38860;DHT22;24609;48.316;16.174;2023-04-15T14:54:02;9.60;99.90
38860;DHT22;24609;48.316;16.174;2023-04-15T14:56:28;9.90;99.90
38860;DHT22;24609;48.316;16.174;2023-04-15T14:58:54;10.10;99.90
38860;DHT22;24609;48.316;16.174;2023-04-15T15:01:20;9.80;99.90
38860;DHT22;24609;48.316;16.174;2023-04-15T15:03:46;9.80;99.90
38860;DHT22;24609;48.316;16.174;2023-04-15T15:06:12;10.10;99.90
38860;DHT22;24609;48.316;16.174;2023-04-15T15:08:38;10.00;99.90
38860;DHT22;24609;48.316;16.174;2023-04-15T15:11:04;10.10;99.90
38860;DHT22;24609;48.316;16.174;2023-04-15T15:13:30;9.70;99.90
38860;DHT22;24609;48.316;16.174;2023-04-15T15:15:56;9.70;99.90
38860;DHT22;24609;48.316;16.174;2023-04-15T15:18:22;9.80;99.90
38860;DHT22;24609;48.316;16.174;2023-04-15T15:20:50;9.70;99.90
38860;DHT22;24609;48.316;16.174;2023-04-15T15:23:15;9.90;99.90
38860;DHT22;24609;48.316;16.174;2023-04-15T15:25:42;10.20;99.90
38860;DHT22;24609;48.316;16.174;2023-04-15T15:28:07;10.00;99.90
38860;DHT22;24609;48.316;16.174;2023-04-15T15:30:33;9.60;99.90
38860;DHT22;24609;48.316;16.174;2023-04-15T15:32:59;9.30;99.90
38860;DHT22;24609;48.316;16.174;2023-04-15T15:35:24;9.30;99.90
38860;DHT22;24609;48.316;16.174;2023-04-15T15:37:51;9.40;99.90
38860;DHT22;24609;48.316;16.174;2023-04-15T15:40:16;9.30;99.90
38860;DHT22;24609;48.316;16.174;2023-04-15T15:42:42;9.00;99.90
38860;DHT22;24609;48.316;16.174;2023-04-15T15:45:08;8.70;99.90
38860;DHT22;24609;48.316;16.174;2023-04-15T15:47:34;8.60;99.90
38860;DHT22;24609;48.316;16.174;2023-04-15T15:50:00;8.70;99.90
38860;DHT22;24609;48.316;16.174;2023-04-15T15:52:26;8.60;99.90
38860;DHT22;24609;48.316;16.174;2023-04-15T15:54:51;8.50;99.90
38860;DHT22;24609;48.316;16.174;2023-04-15T15:57:17;8.90;99.90
38860;DHT22;24609;48.316;16.174;2023-04-15T15:59:43;9.10;99.90
38860;DHT22;24609;48.316;16.174;2023-04-15T16:02:10;9.50;99.90
38860;DHT22;24609;48.316;16.174;2023-04-15T16:04:36;9.10;99.90
38860;DHT22;24609;48.316;16.174;2023-04-15T16:07:02;8.90;99.90
38860;DHT22;24609;48.316;16.174;2023-04-15T16:09:29;8.90;99.90